Time;durP1;ratioP1;P1;durP2;ratioP2;P2;SDS_P1;SDS_P2;PMS_P1;PMS_P2;Temp;Humidity;BMP_temperature;BMP_pressure;BME280_temperature;BME280_humidity;BME280_pressure;Samples;Min_cycle;Max_cycle;Signal;HPM_P1;HPM_P2
2021/11/24 00:01:22;;;;;;;22.33;8.65;;;7.10;95.30;;;;;;5051081;28;20057;-77
2021/11/24 00:03:48;;;;;;;19.33;8.48;;;7.10;95.20;;;;;;5033086;28;20083;-76
2021/11/24 00:06:13;;;;;;;21.42;9.10;;;7.10;95.20;;;;;;5049650;28;20380;-76
2021/11/24 00:08:39;;;;;;;22.48;10.13;;;7.10;95.20;;;;;;5033264;28;20033;-77
2021/11/24 00:11:05;;;;;;;20.88;8.88;;;7.10;95.20;;;;;;5033008;28;20426;-77
2021/11/24 00:13:30;;;;;;;18.38;8.63;;;7.10;95.20;;;;;;5050928;28;20119;-77
2021/11/24 00:15:56;;;;;;;22.15;8.75;;;7.10;95.20;;;;;;5050983;28;20029;-78
2021/11/24 00:18:22;;;;;;;20.05;8.32;;;7.10;95.10;;;;;;5049863;28;20062;-78
2021/11/24 00:20:48;;;;;;;16.92;8.30;;;7.00;95.00;;;;;;5049704;28;20438;-78
2021/11/24 00:23:13;;;;;;;17.13;8.13;;;6.90;94.90;;;;;;5050967;28;20040;-78
2021/11/24 00:25:39;;;;;;;22.10;8.60;;;6.80;94.90;;;;;;5050919;28;20108;-77
2021/11/24 00:28:05;;;;;;;18.45;7.72;;;6.70;95.00;;;;;;5050840;28;20615;-79
2021/11/24 00:30:31;;;;;;;18.80;8.15;;;6.50;95.00;;;;;;5049502;28;20086;-77
2021/11/24 00:32:57;;;;;;;25.98;8.70;;;6.50;95.10;;;;;;5050704;28;20037;-77
2021/11/24 00:35:23;;;;;;;19.50;8.23;;;6.40;95.20;;;;;;5049487;28;20100;-78
2021/11/24 00:37:48;;;;;;;19.60;8.27;;;6.30;95.30;;;;;;5049345;28;20031;-78
2021/11/24 00:40:14;;;;;;;18.52;8.38;;;6.20;95.30;;;;;;5050677;28;20029;-77
2021/11/24 00:42:40;;;;;;;22.20;8.48;;;6.20;95.40;;;;;;5050835;28;20063;-78
2021/11/24 00:45:06;;;;;;;22.90;8.52;;;6.20;95.50;;;;;;5049434;28;20025;-78
2021/11/24 00:47:32;;;;;;;;;;;6.20;95.50;;;;;;5049673;28;20029;-78
2021/11/24 00:49:58;;;;;;;17.23;7.70;;;6.20;95.50;;;;;;5049406;28;19987;-78
2021/11/24 00:52:24;;;;;;;19.05;6.90;;;6.20;95.40;;;;;;5032852;28;20438;-77
2021/11/24 00:54:49;;;;;;;15.38;6.63;;;6.20;95.40;;;;;;5049315;28;20036;-78
2021/11/24 00:57:15;;;;;;;16.05;6.70;;;6.20;95.40;;;;;;5050739;28;20121;-78
2021/11/24 00:59:41;;;;;;;19.05;7.47;;;6.20;95.50;;;;;;5049222;28;20128;-78
2021/11/24 01:02:07;;;;;;;17.52;6.93;;;6.20;95.40;;;;;;5032718;28;20829;-78
2021/11/24 01:04:32;;;;;;;14.65;6.68;;;6.20;95.40;;;;;;5049278;28;20037;-77
2021/11/24 01:06:58;;;;;;;16.80;6.68;;;6.20;95.50;;;;;;5049271;28;20033;-78
2021/11/24 01:09:24;;;;;;;15.27;6.43;;;6.20;95.50;;;;;;5035211;28;20075;-78
2021/11/24 01:11:50;;;;;;;14.40;5.90;;;6.10;95.40;;;;;;5053012;28;20048;-78
2021/11/24 01:14:15;;;;;;;15.82;6.90;;;6.10;95.40;;;;;;5053016;28;20098;-78
2021/11/24 01:16:42;;;;;;;18.17;6.00;;;6.00;95.40;;;;;;5054330;28;20041;-78
2021/11/24 01:19:08;;;;;;;12.93;5.95;;;6.00;95.40;;;;;;5054303;28;20040;-77
2021/11/24 01:21:34;;;;;;;13.75;5.82;;;5.90;95.50;;;;;;5054419;28;20033;-78
2021/11/24 01:23:59;;;;;;;12.93;5.70;;;5.90;95.60;;;;;;5052803;28;20048;-78
2021/11/24 01:26:25;;;;;;;14.68;5.65;;;5.90;95.60;;;;;;5054266;28;20106;-78
2021/11/24 01:28:51;;;;;;;14.88;5.25;;;5.90;95.60;;;;;;5054077;28;20492;-78
2021/11/24 01:31:17;;;;;;;13.85;5.05;;;5.80;95.60;;;;;;5052905;28;20029;-78
2021/11/24 01:33:43;;;;;;;12.90;5.30;;;5.90;95.70;;;;;;5019865;28;20037;-77
2021/11/24 01:36:09;;;;;;;15.02;5.28;;;5.80;95.60;;;;;;5052734;28;20029;-77
2021/11/24 01:38:35;;;;;;;13.38;5.25;;;5.80;95.70;;;;;;5052447;28;20112;-78
2021/11/24 01:41:00;;;;;;;11.40;5.53;;;5.80;95.70;;;;;;5052552;28;20036;-78
2021/11/24 01:43:26;;;;;;;15.43;6.25;;;5.80;95.70;;;;;;5053866;28;20033;-77
2021/11/24 01:45:52;;;;;;;15.77;6.18;;;5.80;95.60;;;;;;5053624;28;20192;-78
2021/11/24 01:48:17;;;;;;;14.60;6.07;;;5.70;95.60;;;;;;5035773;28;20040;-77
2021/11/24 01:50:43;;;;;;;14.50;6.22;;;5.70;95.70;;;;;;5035893;28;20250;-78
2021/11/24 01:53:09;;;;;;;12.63;5.78;;;5.60;95.70;;;;;;5053753;28;20472;-78
2021/11/24 01:55:35;;;;;;;14.68;6.18;;;5.60;95.80;;;;;;5053583;28;20107;-78
2021/11/24 01:58:02;;;;;;;16.88;6.22;;;5.60;95.90;;;;;;5053501;28;20065;-78
2021/11/24 02:00:31;;;;;;;13.10;5.07;;;5.50;95.80;;;;;;5053288;28;20049;-77
2021/11/24 02:02:57;;;;;;;15.10;6.22;;;5.50;95.80;;;;;;5053345;28;20383;-78
2021/11/24 02:05:23;;;;;;;16.90;6.65;;;5.50;95.90;;;;;;5053413;28;20025;-78
2021/11/24 02:07:49;;;;;;;12.85;5.50;;;5.40;96.00;;;;;;5053232;28;20021;-77
2021/11/24 02:10:15;;;;;;;15.85;6.60;;;5.40;96.00;;;;;;5051961;28;20029;-77
2021/11/24 02:12:41;;;;;;;15.90;6.90;;;5.40;96.00;;;;;;5052006;28;20483;-78
2021/11/24 02:15:09;;;;;;;13.85;5.55;;;5.40;96.00;;;;;;5053228;28;20127;-78
2021/11/24 02:17:35;;;;;;;15.00;6.20;;;5.30;96.10;;;;;;5051709;28;20162;-78
2021/11/24 02:20:01;;;;;;;;;;;5.30;96.10;;;;;;5051800;28;20032;-78
2021/11/24 02:22:26;;;;;;;14.25;5.78;;;5.30;96.20;;;;;;5053010;28;19908;-77
2021/11/24 02:24:52;;;;;;;14.38;5.68;;;5.30;96.10;;;;;;5052950;28;20029;-78
2021/11/24 02:27:18;;;;;;;15.85;6.05;;;5.20;96.10;;;;;;5035018;28;20159;-77
2021/11/24 02:29:44;;;;;;;16.02;5.47;;;5.20;96.10;;;;;;5051549;28;20487;-77
2021/11/24 02:32:15;;;;;;;12.18;5.57;;;5.20;96.10;;;;;;5018634;28;20033;-78
2021/11/24 02:34:41;;;;;;;11.88;5.47;;;5.20;96.20;;;;;;5035559;28;20498;-78
2021/11/24 02:37:07;;;;;;;13.93;5.50;;;5.20;96.20;;;;;;5051268;28;20029;-78
2021/11/24 02:39:32;;;;;;;16.33;6.03;;;5.20;96.20;;;;;;5051386;28;20043;-77
2021/11/24 02:41:59;;;;;;;14.48;5.13;;;5.20;96.20;;;;;;5034747;28;20040;-78
2021/11/24 02:44:32;;;;;;;14.40;5.10;;;5.10;96.20;;;;;;5052478;28;20064;-78
2021/11/24 02:47:06;;;;;;;14.93;5.72;;;5.10;96.20;;;;;;5051217;28;20100;-78
2021/11/24 02:49:40;;;;;;;13.35;5.32;;;5.10;96.30;;;;;;5052590;28;20028;-79
2021/11/24 02:52:07;;;;;;;10.75;5.45;;;5.10;96.30;;;;;;5052353;28;20017;-77
2021/11/24 02:54:33;;;;;;;14.52;5.57;;;5.10;96.30;;;;;;5051435;28;20052;-77
2021/11/24 02:57:04;;;;;;;11.45;5.22;;;5.10;96.30;;;;;;5051037;28;20047;-77
2021/11/24 02:59:30;;;;;;;14.85;5.47;;;5.10;96.30;;;;;;5052425;28;20427;-78
2021/11/24 03:01:56;;;;;;;11.23;5.03;;;5.10;96.30;;;;;;5052243;28;20048;-78
2021/11/24 03:04:32;;;;;;;12.43;5.57;;;5.00;96.30;;;;;;5050885;28;20036;-78
2021/11/24 03:07:00;;;;;;;9.53;4.33;;;5.00;96.30;;;;;;5034454;28;20028;-78
2021/11/24 03:09:26;;;;;;;11.65;4.43;;;5.00;96.40;;;;;;5050779;28;20475;-78
2021/11/24 03:11:53;;;;;;;12.90;5.10;;;5.10;96.50;;;;;;5050948;28;20044;-77
2021/11/24 03:14:19;;;;;;;16.52;5.15;;;5.10;96.50;;;;;;5050838;28;20032;-77
2021/11/24 03:16:45;;;;;;;12.25;5.03;;;5.10;96.50;;;;;;5050697;28;20035;-78
2021/11/24 03:19:11;;;;;;;14.57;5.82;;;5.10;96.50;;;;;;5050725;28;20044;-78
2021/11/24 03:21:37;;;;;;;12.68;5.25;;;5.10;96.60;;;;;;5050559;28;20467;-77
2021/11/24 03:24:03;;;;;;;16.77;6.88;;;5.10;96.60;;;;;;5050645;28;20048;-78
2021/11/24 03:26:29;;;;;;;12.00;5.47;;;5.20;96.70;;;;;;5051862;28;20437;-78
2021/11/24 03:28:54;;;;;;;16.20;5.88;;;5.20;96.70;;;;;;5051708;28;20056;-78
2021/11/24 03:31:20;;;;;;;12.35;5.13;;;5.30;96.70;;;;;;5049674;28;20025;-78
2021/11/24 03:33:46;;;;;;;12.45;5.15;;;5.40;96.80;;;;;;5051669;28;20094;-77
2021/11/24 03:36:12;;;;;;;12.82;5.45;;;5.50;96.70;;;;;;5051651;28;20032;-78
2021/11/24 03:38:38;;;;;;;14.40;5.70;;;5.50;96.70;;;;;;5050402;28;20032;-78
2021/11/24 03:41:03;;;;;;;12.30;4.97;;;5.60;96.70;;;;;;5051810;28;20045;-78
2021/11/24 03:43:29;;;;;;;10.35;4.72;;;5.70;96.60;;;;;;5033706;28;20036;-78
2021/11/24 03:45:55;;;;;;;15.55;5.90;;;5.80;96.60;;;;;;5050331;28;20044;-78
2021/11/24 03:48:21;;;;;;;11.45;5.05;;;5.80;96.60;;;;;;5050166;28;20035;-78
2021/11/24 03:50:47;;;;;;;11.77;5.75;;;5.90;96.50;;;;;;5051455;28;20029;-77
2021/11/24 03:53:12;;;;;;;11.35;5.20;;;6.00;96.50;;;;;;5051438;28;20033;-78
2021/11/24 03:55:38;;;;;;;13.50;6.15;;;6.00;96.40;;;;;;5050218;28;20365;-77
2021/11/24 03:58:04;;;;;;;11.63;6.03;;;6.00;96.40;;;;;;5051252;28;20475;-78
2021/11/24 04:00:32;;;;;;;11.20;4.75;;;6.10;96.40;;;;;;5051141;28;20120;-77
2021/11/24 04:02:58;;;;;;;11.98;5.32;;;6.10;96.40;;;;;;5051158;28;20033;-77
2021/11/24 04:05:24;;;;;;;13.35;6.28;;;6.10;96.30;;;;;;5050072;28;20036;-77
2021/11/24 04:07:50;;;;;;;12.82;6.00;;;6.10;96.20;;;;;;5049885;28;20021;-77
2021/11/24 04:10:16;;;;;;;11.10;5.82;;;6.00;96.10;;;;;;5051182;28;20086;-76
2021/11/24 04:12:42;;;;;;;10.02;4.65;;;5.90;96.10;;;;;;5051333;28;20406;-77
2021/11/24 04:15:14;;;;;;;12.38;6.03;;;5.80;96.20;;;;;;5051268;28;20025;-76
2021/11/24 04:17:41;;;;;;;13.68;5.72;;;5.70;96.30;;;;;;5051155;28;20479;-76
2021/11/24 04:20:09;;;;;;;11.52;5.10;;;5.60;96.40;;;;;;5051157;28;20463;-76
2021/11/24 04:22:35;;;;;;;11.05;5.50;;;5.50;96.50;;;;;;5049861;28;20067;-77
2021/11/24 04:25:01;;;;;;;14.05;5.00;;;5.50;96.50;;;;;;5049766;28;20029;-76
2021/11/24 04:27:26;;;;;;;12.15;5.72;;;5.40;96.60;;;;;;5051087;28;20387;-77
2021/11/24 04:29:52;;;;;;;11.27;5.28;;;5.40;96.60;;;;;;5049766;28;20029;-77
2021/11/24 04:32:19;;;;;;;10.27;4.85;;;5.40;96.70;;;;;;5051202;28;20021;-77
2021/11/24 04:34:45;;;;;;;11.23;4.97;;;5.50;96.80;;;;;;5051023;28;20388;-77
2021/11/24 04:37:11;;;;;;;12.80;5.50;;;5.50;96.80;;;;;;5049714;28;20031;-77
2021/11/24 04:39:37;;;;;;;9.68;4.75;;;5.60;96.70;;;;;;5051008;28;20029;-76
2021/11/24 04:42:03;;;;;;;11.55;5.45;;;5.60;96.70;;;;;;5050531;28;20029;-76
2021/11/24 04:44:29;;;;;;;11.85;5.45;;;5.50;96.60;;;;;;5054651;28;20029;-77
2021/11/24 04:46:55;;;;;;;11.02;5.95;;;5.50;96.80;;;;;;5053515;28;20052;-78
2021/11/24 04:49:20;;;;;;;14.43;5.35;;;5.50;96.70;;;;;;5054718;28;20296;-77
2021/11/24 04:51:46;;;;;;;14.40;5.60;;;5.50;96.70;;;;;;5054574;28;20464;-77
2021/11/24 04:54:12;;;;;;;11.93;5.35;;;5.50;96.70;;;;;;5053513;28;20033;-77
2021/11/24 04:56:38;;;;;;;10.43;6.07;;;5.40;96.70;;;;;;5053271;28;20040;-78
2021/11/24 04:59:03;;;;;;;12.75;5.47;;;5.40;96.80;;;;;;5053272;28;20045;-77
2021/11/24 05:01:29;;;;;;;10.88;5.05;;;5.50;96.90;;;;;;5036481;28;20449;-78
2021/11/24 05:03:56;;;;;;;11.00;4.28;;;5.60;97.00;;;;;;5053420;28;20458;-77
2021/11/24 05:06:22;;;;;;;;;;;5.70;97.00;;;;;;5053752;28;20104;-77
2021/11/24 05:08:49;;;;;;;11.35;5.20;;;5.80;97.00;;;;;;5054598;28;19912;-76
2021/11/24 05:11:16;;;;;;;10.38;5.10;;;5.90;96.90;;;;;;5054701;28;20154;-78
2021/11/24 05:13:53;;;;;;;12.57;5.50;;;5.90;96.80;;;;;;5054495;28;20028;-77
2021/11/24 05:16:21;;;;;;;15.45;6.30;;;6.00;96.80;;;;;;5053237;28;20168;-77
2021/11/24 05:18:48;;;;;;;12.18;5.47;;;6.00;96.70;;;;;;5052789;28;20553;-77
2021/11/24 05:23:48;;;;;;;13.32;5.75;;;5.90;96.70;;;;;;5054063;28;20033;-78
2021/11/24 05:26:14;;;;;;;11.25;4.68;;;5.90;96.60;;;;;;5054003;28;20052;-77
2021/11/24 05:28:40;;;;;;;13.25;5.32;;;5.80;96.60;;;;;;5052553;28;20114;-77
2021/11/24 05:31:07;;;;;;;10.55;5.30;;;5.80;96.60;;;;;;5053910;28;20033;-76
2021/11/24 05:33:34;;;;;;;13.43;5.53;;;5.70;96.70;;;;;;5052582;28;20384;-77
2021/11/24 05:36:00;;;;;;;10.95;4.95;;;5.70;96.80;;;;;;5052544;28;20078;-78
2021/11/24 05:38:25;;;;;;;10.55;5.55;;;5.70;96.90;;;;;;5035898;28;20025;-77
2021/11/24 05:40:51;;;;;;;16.92;5.43;;;5.70;96.90;;;;;;5035968;28;20480;-78
2021/11/24 05:43:21;;;;;;;10.18;5.25;;;5.70;97.00;;;;;;5052728;28;20074;-78
2021/11/24 05:48:21;;;;;;;10.80;5.20;;;5.90;97.10;;;;;;5054006;28;20082;-77
2021/11/24 05:50:49;;;;;;;12.88;4.80;;;6.10;97.20;;;;;;5052512;28;20025;-77
2021/11/24 05:53:17;;;;;;;12.10;5.50;;;6.20;97.10;;;;;;5053416;28;20017;-77
2021/11/24 05:55:44;;;;;;;12.02;5.38;;;6.30;97.00;;;;;;5053031;28;20028;-76
2021/11/24 05:58:11;;;;;;;8.18;4.75;;;6.40;97.00;;;;;;5051976;28;20035;-77
2021/11/24 06:00:37;;;;;;;8.15;4.35;;;6.50;97.00;;;;;;5052182;28;20052;-77
2021/11/24 06:03:03;;;;;;;8.50;4.55;;;6.60;96.90;;;;;;5053604;28;20177;-77
2021/11/24 06:05:29;;;;;;;12.40;5.05;;;6.60;96.80;;;;;;5019194;28;20032;-77
2021/11/24 06:07:55;;;;;;;7.03;4.03;;;6.70;96.90;;;;;;5053286;28;20029;-77
2021/11/24 06:10:21;;;;;;;11.25;5.38;;;6.60;96.50;;;;;;5053396;28;20018;-78
2021/11/24 06:12:47;;;;;;;9.95;4.35;;;6.50;96.50;;;;;;5053103;28;20032;-78
2021/11/24 06:15:16;;;;;;;9.05;4.82;;;6.40;96.50;;;;;;5051879;28;20029;-77
2021/11/24 06:17:43;;;;;;;8.82;4.72;;;6.20;96.50;;;;;;5052968;28;20033;-77
2021/11/24 06:20:10;;;;;;;11.57;4.63;;;6.20;96.60;;;;;;5053019;28;20038;-77
2021/11/24 06:22:37;;;;;;;10.05;5.00;;;6.10;96.70;;;;;;5053269;28;20029;-77
2021/11/24 06:25:03;;;;;;;11.88;5.30;;;6.00;96.70;;;;;;5035186;28;20025;-77
2021/11/24 06:27:28;;;;;;;8.65;5.10;;;6.00;96.80;;;;;;5034891;28;20130;-77
2021/11/24 06:29:54;;;;;;;10.05;4.57;;;5.90;96.80;;;;;;5051715;28;20049;-78
2021/11/24 06:32:20;;;;;;;11.70;5.32;;;5.90;96.90;;;;;;5052987;28;20036;-77
2021/11/24 06:34:45;;;;;;;11.63;4.93;;;5.90;96.90;;;;;;5051345;28;20037;-77
2021/11/24 06:37:11;;;;;;;9.20;5.15;;;5.90;96.90;;;;;;5034923;28;20025;-77
2021/11/24 06:39:37;;;;;;;11.60;4.57;;;5.80;97.00;;;;;;5051394;28;20040;-77
2021/11/24 06:42:04;;;;;;;9.75;5.13;;;5.80;97.00;;;;;;5034677;28;20033;-77
2021/11/24 06:44:29;;;;;;;12.40;4.45;;;5.80;97.00;;;;;;5052537;28;20116;-78
2021/11/24 06:46:55;;;;;;;12.07;4.97;;;5.80;97.10;;;;;;5051413;28;20555;-77
2021/11/24 06:49:21;;;;;;;9.88;4.70;;;5.80;97.20;;;;;;5052653;28;20039;-76
2021/11/24 06:51:47;;;;;;;9.70;4.82;;;5.90;97.20;;;;;;5051231;28;20467;-76
2021/11/24 06:54:16;;;;;;;12.07;4.82;;;6.00;97.40;;;;;;5050955;28;20086;-77
2021/11/24 06:56:43;;;;;;;9.60;4.75;;;6.10;97.30;;;;;;5052207;28;20032;-76
2021/11/24 06:59:09;;;;;;;10.00;4.40;;;6.20;97.20;;;;;;5051238;28;20033;-77
2021/11/24 07:01:35;;;;;;;8.15;4.38;;;6.20;97.10;;;;;;5032127;28;20255;-77
2021/11/24 07:04:01;;;;;;;8.57;4.40;;;6.30;97.10;;;;;;5034716;28;20068;-77
2021/11/24 07:06:26;;;;;;;13.10;4.90;;;6.30;97.10;;;;;;5051916;28;20044;-78
2021/11/24 07:08:52;;;;;;;10.55;4.82;;;6.30;97.00;;;;;;5050460;28;20064;-77
2021/11/24 07:11:18;;;;;;;10.02;4.85;;;6.30;97.00;;;;;;5050568;28;20479;-78
2021/11/24 07:13:43;;;;;;;8.75;4.40;;;6.30;97.00;;;;;;5050479;28;20624;-77
2021/11/24 07:16:10;;;;;;;8.55;4.63;;;6.30;97.20;;;;;;5050592;28;20040;-76
2021/11/24 07:18:35;;;;;;;;;;;6.40;97.20;;;;;;5050376;28;20033;-77
2021/11/24 07:21:01;;;;;;;11.00;5.10;;;6.50;97.20;;;;;;5050276;28;19913;-77
2021/11/24 07:23:27;;;;;;;12.38;4.53;;;6.60;97.10;;;;;;5050223;28;20032;-77
2021/11/24 07:25:53;;;;;;;10.18;4.43;;;6.60;97.00;;;;;;5033660;28;20353;-75
2021/11/24 07:28:19;;;;;;;10.30;4.68;;;6.70;97.00;;;;;;5050369;28;20025;-77
2021/11/24 07:30:45;;;;;;;9.90;4.50;;;6.70;97.00;;;;;;5050371;28;20029;-77
2021/11/24 07:33:10;;;;;;;11.50;4.90;;;6.60;96.90;;;;;;5050271;28;20442;-77
2021/11/24 07:35:36;;;;;;;14.50;4.95;;;6.60;96.90;;;;;;5051624;28;20383;-77
2021/11/24 07:38:02;;;;;;;12.35;4.85;;;6.70;97.00;;;;;;5049932;28;20029;-77
2021/11/24 07:40:27;;;;;;;12.85;4.50;;;6.60;97.00;;;;;;5051446;28;20082;-77
2021/11/24 07:42:53;;;;;;;11.05;5.03;;;6.60;97.10;;;;;;5050097;28;20103;-77
2021/11/24 07:45:19;;;;;;;10.80;4.95;;;6.70;97.10;;;;;;5050259;28;20039;-77
2021/11/24 07:47:45;;;;;;;10.52;4.30;;;6.70;97.20;;;;;;5051225;28;20017;-77
2021/11/24 07:50:11;;;;;;;22.02;4.97;;;6.80;97.20;;;;;;5049991;28;20083;-77
2021/11/24 07:52:37;;;;;;;10.32;4.63;;;6.80;97.10;;;;;;5050183;28;20060;-77
2021/11/24 07:55:03;;;;;;;;;;;6.80;97.20;;;;;;5050297;28;20433;-77
2021/11/24 07:57:35;;;;;;;15.57;5.05;;;6.80;97.20;;;;;;5052896;28;19909;-77
2021/11/24 08:00:03;;;;;;;9.45;4.72;;;6.70;97.20;;;;;;5048696;28;20037;-78
2021/11/24 08:02:29;;;;;;;11.55;4.78;;;6.80;97.30;;;;;;5049769;28;20036;-78
2021/11/24 08:04:55;;;;;;;13.23;4.45;;;6.80;97.30;;;;;;5033124;28;20033;-78
2021/11/24 08:07:20;;;;;;;9.98;4.50;;;6.80;97.30;;;;;;5051041;28;20163;-78
2021/11/24 08:09:46;;;;;;;13.15;4.68;;;6.90;97.30;;;;;;5049416;28;20040;-76
2021/11/24 08:12:12;;;;;;;10.60;3.88;;;6.90;97.20;;;;;;5049826;28;20037;-76
2021/11/24 08:14:38;;;;;;;8.38;3.35;;;6.80;97.10;;;;;;5049581;28;20036;-78
2021/11/24 08:17:04;;;;;;;13.35;4.72;;;6.70;97.10;;;;;;5048976;28;20141;-77
2021/11/24 08:19:30;;;;;;;9.18;4.60;;;6.60;97.20;;;;;;5050858;28;20025;-78
2021/11/24 08:21:56;;;;;;;9.63;4.13;;;6.60;97.30;;;;;;5032927;28;20123;-77
2021/11/24 08:24:22;;;;;;;12.13;5.05;;;6.60;97.40;;;;;;5051262;28;20025;-77
2021/11/24 08:26:48;;;;;;;;;;;6.60;97.40;;;;;;5049470;28;20435;-77
2021/11/24 08:29:14;;;;;;;10.20;4.00;;;6.60;97.60;;;;;;5049115;28;19916;-77
2021/11/24 08:31:40;;;;;;;11.73;4.60;;;6.70;97.60;;;;;;5049454;28;20029;-77
2021/11/24 08:34:07;;;;;;;12.40;4.85;;;6.70;97.50;;;;;;5050398;28;20108;-77
2021/11/24 08:36:33;;;;;;;11.27;4.75;;;6.70;97.50;;;;;;5049242;28;20021;-77
2021/11/24 08:38:59;;;;;;;14.00;4.70;;;6.80;97.50;;;;;;5032668;28;20098;-77
2021/11/24 08:41:25;;;;;;;13.80;4.53;;;6.80;97.60;;;;;;5051657;28;20045;-77
2021/11/24 08:43:50;;;;;;;10.90;5.00;;;6.90;97.70;;;;;;5050217;28;20033;-73
2021/11/24 08:46:17;;;;;;;14.05;5.43;;;7.00;97.70;;;;;;5032653;28;20037;-78
2021/11/24 08:48:43;;;;;;;12.25;5.22;;;7.00;97.70;;;;;;5050157;28;20025;-79
2021/11/24 08:51:09;;;;;;;13.93;4.80;;;7.10;97.80;;;;;;5032210;28;20543;-78
2021/11/24 08:53:35;;;;;;;10.93;3.80;;;7.10;97.70;;;;;;5050098;28;20156;-77
2021/11/24 08:56:00;;;;;;;10.43;4.50;;;7.10;97.70;;;;;;5046678;28;20064;-77
2021/11/24 08:58:26;;;;;;;10.48;4.30;;;7.10;97.80;;;;;;5042551;28;20041;-78
2021/11/24 09:00:52;;;;;;;14.57;5.57;;;7.20;97.90;;;;;;5031128;28;20055;-77
2021/11/24 09:03:18;;;;;;;13.98;5.00;;;7.20;97.90;;;;;;5039182;28;20041;-77
2021/11/24 09:05:44;;;;;;;12.93;5.10;;;7.30;98.10;;;;;;5037788;28;20059;-77
2021/11/24 09:08:10;;;;;;;12.10;4.88;;;7.40;98.10;;;;;;5022906;28;20036;-78
2021/11/24 09:10:38;;;;;;;14.02;4.88;;;7.60;98.10;;;;;;5038877;28;20079;-78
2021/11/24 09:13:04;;;;;;;12.38;5.38;;;7.70;98.10;;;;;;5039404;28;20029;-77
2021/11/24 09:15:30;;;;;;;13.85;4.82;;;7.80;98.10;;;;;;5038263;28;21387;-77
2021/11/24 09:17:55;;;;;;;12.90;4.97;;;7.80;98.00;;;;;;5037388;28;20030;-78
2021/11/24 09:20:21;;;;;;;16.13;5.40;;;7.80;98.00;;;;;;5022004;28;20441;-78
2021/11/24 09:22:48;;;;;;;15.75;6.43;;;7.80;98.00;;;;;;5022232;28;20384;-77
2021/11/24 09:25:21;;;;;;;14.68;5.25;;;7.80;98.00;;;;;;5049713;28;20044;-78
2021/11/24 09:27:57;;;;;;;13.25;5.78;;;7.80;98.00;;;;;;5048377;28;20024;-77
2021/11/24 09:30:25;;;;;;;20.65;6.88;;;7.80;98.10;;;;;;5052122;28;20464;-77
2021/11/24 09:32:51;;;;;;;15.70;6.10;;;7.80;98.10;;;;;;5051583;28;20394;-78
2021/11/24 09:35:16;;;;;;;15.60;7.15;;;7.80;98.10;;;;;;5043580;28;20116;-77
2021/11/24 09:37:42;;;;;;;19.55;6.35;;;7.80;98.20;;;;;;5043045;28;20037;-78
2021/11/24 09:40:09;;;;;;;15.73;6.22;;;7.80;98.20;;;;;;5038529;28;20383;-78
2021/11/24 09:42:37;;;;;;;14.88;6.22;;;7.80;98.30;;;;;;5033735;28;20044;-77
2021/11/24 09:45:04;;;;;;;17.30;6.32;;;7.80;98.30;;;;;;5033319;28;20029;-77
2021/11/24 09:47:32;;;;;;;14.40;6.22;;;7.80;98.30;;;;;;5032140;28;20041;-77
2021/11/24 09:49:59;;;;;;;16.95;7.05;;;7.90;98.40;;;;;;5033249;28;20037;-77
2021/11/24 09:52:27;;;;;;;20.40;6.88;;;7.90;98.40;;;;;;5031942;28;20025;-77
2021/11/24 09:54:53;;;;;;;14.30;5.80;;;8.00;98.50;;;;;;5031802;28;20097;-77
2021/11/24 09:57:23;;;;;;;13.43;5.50;;;8.00;98.50;;;;;;5033559;28;20116;-78
2021/11/24 09:59:50;;;;;;;13.55;5.60;;;8.20;98.60;;;;;;5018066;28;20026;-77
2021/11/24 10:02:15;;;;;;;;;;;8.20;98.50;;;;;;5034501;28;20084;-78
2021/11/24 10:04:43;;;;;;;17.77;6.03;;;8.20;98.30;;;;;;5035165;28;19920;-77
2021/11/24 10:07:14;;;;;;;16.08;6.57;;;8.20;98.30;;;;;;5035829;28;20484;-77
2021/11/24 10:09:40;;;;;;;14.85;6.82;;;8.30;98.30;;;;;;5041316;28;20480;-77
2021/11/24 10:12:06;;;;;;;;;;;8.30;98.30;;;;;;5048787;28;20029;-76
2021/11/24 10:14:48;;;;;;;14.15;5.70;;;8.30;98.30;;;;;;5051741;28;19916;-77
2021/11/24 10:17:24;;;;;;;16.20;6.50;;;8.30;98.30;;;;;;5048786;28;20057;-77
2021/11/24 10:20:29;;;;;;;15.02;7.13;;;8.40;98.30;;;;;;5045312;28;20029;-77
2021/11/24 10:23:34;;;;;;;13.23;6.15;;;8.40;98.50;;;;;;5029754;28;20042;-76
2021/11/24 10:26:27;;;;;;;17.27;6.15;;;8.50;98.50;;;;;;5036871;28;20028;-76
2021/11/24 10:29:20;;;;;;;15.98;7.28;;;8.60;98.60;;;;;;5050015;28;20033;-76
2021/11/24 10:31:51;;;;;;;14.50;6.30;;;8.80;98.70;;;;;;5046089;28;20547;-77
2021/11/24 10:34:18;;;;;;;13.65;6.30;;;8.90;98.60;;;;;;5040412;28;20029;-77
2021/11/24 10:37:05;;;;;;;15.40;6.53;;;9.00;98.40;;;;;;5045801;28;20495;-76
2021/11/24 10:39:33;;;;;;;;;;;9.10;98.40;;;;;;5048691;28;20530;-78
2021/11/24 10:42:07;;;;;;;16.42;7.18;;;9.00;98.20;;;;;;5044007;28;19912;-77
2021/11/24 10:44:34;;;;;;;17.85;8.93;;;9.00;98.20;;;;;;5048817;28;20024;-77
2021/11/24 10:47:01;;;;;;;21.63;8.82;;;9.00;98.20;;;;;;5045319;28;20017;-75
2021/11/24 10:49:50;;;;;;;22.83;7.85;;;9.00;98.40;;;;;;5050489;28;20032;-77
2021/11/24 10:52:44;;;;;;;20.48;7.25;;;9.10;98.40;;;;;;5041897;28;20049;-77
2021/11/24 10:55:22;;;;;;;14.70;6.55;;;9.10;98.50;;;;;;5041810;28;20499;-77
2021/11/24 10:58:24;;;;;;;15.13;6.07;;;9.20;98.60;;;;;;5042449;28;20021;-77
2021/11/24 11:00:56;;;;;;;15.13;6.15;;;9.40;98.60;;;;;;5041254;28;20548;-76
2021/11/24 11:03:35;;;;;;;17.58;7.40;;;9.40;98.50;;;;;;5037639;28;20392;-77
2021/11/24 11:06:01;;;;;;;14.68;6.38;;;9.50;98.50;;;;;;5048246;28;20542;-77
2021/11/24 11:08:27;;;;;;;19.98;8.23;;;9.60;98.40;;;;;;5028114;28;20026;-78
2021/11/24 11:10:55;;;;;;;15.25;6.10;;;9.60;98.30;;;;;;5025425;28;20026;-76
2021/11/24 11:13:23;;;;;;;14.25;6.78;;;9.60;98.30;;;;;;5039406;28;20372;-77
2021/11/24 11:15:55;;;;;;;14.23;5.57;;;9.60;98.30;;;;;;5035228;28;20021;-76
2021/11/24 11:18:35;;;;;;;16.52;5.88;;;9.60;98.30;;;;;;5028641;28;20437;-77
2021/11/24 11:21:03;;;;;;;13.18;5.72;;;9.60;98.30;;;;;;5025523;28;20047;-73
2021/11/24 11:23:37;;;;;;;10.93;4.88;;;9.60;98.30;;;;;;5041184;28;20021;-76
2021/11/24 11:26:17;;;;;;;12.60;5.40;;;9.60;98.40;;;;;;5023728;28;20026;-76
2021/11/24 11:28:47;;;;;;;13.63;6.13;;;9.60;98.30;;;;;;5044070;28;20452;-77
2021/11/24 11:31:15;;;;;;;13.63;6.35;;;9.60;98.30;;;;;;5046639;28;20033;-76
2021/11/24 11:33:47;;;;;;;12.05;5.75;;;9.50;98.20;;;;;;5053442;28;20028;-77
2021/11/24 11:36:13;;;;;;;12.45;5.22;;;9.50;98.30;;;;;;5052164;28;20033;-76
2021/11/24 11:38:45;;;;;;;;;;;9.50;98.30;;;;;;5047890;28;20033;-76
2021/11/24 11:41:12;;;;;;;13.02;5.57;;;9.50;98.30;;;;;;5047736;28;19978;-76
2021/11/24 11:43:40;;;;;;;13.77;6.32;;;9.60;98.20;;;;;;5024041;28;20036;-77
2021/11/24 11:46:21;;;;;;;12.77;5.57;;;9.60;98.30;;;;;;5043850;28;20032;-77
2021/11/24 11:48:48;;;;;;;14.07;5.50;;;9.60;98.20;;;;;;5050402;28;20064;-76
2021/11/24 11:51:25;;;;;;;11.55;4.22;;;9.60;98.20;;;;;;5031300;28;20033;-77
2021/11/24 11:53:52;;;;;;;;;;;9.70;98.20;;;;;;5043922;28;20062;-76
2021/11/24 11:56:25;;;;;;;16.13;5.35;;;9.70;98.20;;;;;;5039643;28;19904;-75
2021/11/24 11:59:10;;;;;;;10.10;4.13;;;9.70;98.10;;;;;;5044152;28;20453;-77
2021/11/24 12:01:41;;;;;;;14.02;4.43;;;9.70;98.10;;;;;;5045545;28;20044;-77
2021/11/24 12:04:12;;;;;;;8.85;4.20;;;9.80;98.10;;;;;;5033268;28;20033;-77
2021/11/24 12:07:05;;;;;;;14.18;3.67;;;9.80;98.10;;;;;;5038799;28;20029;-77
2021/11/24 12:09:53;;;;;;;11.05;3.60;;;9.80;98.10;;;;;;5041105;28;20433;-77
2021/11/24 12:12:32;;;;;;;10.50;3.70;;;9.80;98.10;;;;;;5032700;28;20036;-77
2021/11/24 12:14:58;;;;;;;10.43;4.22;;;9.90;98.10;;;;;;5038336;28;20048;-76
2021/11/24 12:17:30;;;;;;;11.95;4.70;;;10.00;98.20;;;;;;5048661;28;20432;-77
2021/11/24 12:20:14;;;;;;;15.00;4.57;;;10.10;98.20;;;;;;5045174;28;20780;-77
2021/11/24 12:22:50;;;;;;;10.23;4.05;;;10.20;98.20;;;;;;5052806;28;20103;-77
2021/11/24 12:25:19;;;;;;;11.88;5.07;;;10.30;98.10;;;;;;5048372;28;20033;-77
2021/11/24 12:33:16;;;;;;;9.32;3.13;;;10.50;97.70;;;;;;5049527;28;20049;-76
2021/11/24 12:35:48;;;;;;;7.90;2.83;;;10.40;97.60;;;;;;5049480;28;20030;-76
2021/11/24 12:38:16;;;;;;;8.02;2.45;;;10.40;97.60;;;;;;5044558;28;20025;-79
2021/11/24 12:40:44;;;;;;;10.43;2.60;;;10.40;97.60;;;;;;5040611;28;20026;-78
2021/11/24 12:43:17;;;;;;;11.18;3.13;;;10.40;97.60;;;;;;5040989;28;20025;-80
2021/11/24 12:46:20;;;;;;;11.02;3.17;;;10.40;97.60;;;;;;5040359;28;20041;-76
2021/11/24 12:48:56;;;;;;;7.40;2.15;;;10.40;97.70;;;;;;5040167;28;20701;-79
2021/11/24 12:51:33;;;;;;;8.48;2.88;;;10.40;97.70;;;;;;5049858;28;20025;-77
2021/11/24 12:54:10;;;;;;;8.00;2.60;;;10.50;97.60;;;;;;5043486;28;20388;-78
2021/11/24 12:56:46;;;;;;;8.98;2.55;;;10.60;97.60;;;;;;5037908;28;20156;-77
2021/11/24 12:59:14;;;;;;;16.52;2.72;;;10.60;97.50;;;;;;5042324;28;20029;-78
2021/11/24 13:01:42;;;;;;;9.32;2.35;;;10.60;97.50;;;;;;5043156;28;20042;-80
2021/11/24 13:04:09;;;;;;;6.30;2.25;;;10.60;97.40;;;;;;5049865;28;20040;-76
2021/11/24 13:06:38;;;;;;;16.30;3.63;;;10.60;97.40;;;;;;5042072;28;20029;-68